sensor_id;sensor_type;location;lat;lon;timestamp;P1;durP1;ratioP1;P2;durP2;ratioP2
38132;SDS011;23948;43.252;26.572;2023-05-19T00:00:33;12.65;;;8.40;;
38132;SDS011;23948;43.252;26.572;2023-05-19T00:03:01;13.45;;;8.73;;
38132;SDS011;23948;43.252;26.572;2023-05-19T00:05:27;14.30;;;8.90;;
38132;SDS011;23948;43.252;26.572;2023-05-19T00:07:55;11.60;;;8.70;;
38132;SDS011;23948;43.252;26.572;2023-05-19T00:10:22;15.48;;;8.18;;
38132;SDS011;23948;43.252;26.572;2023-05-19T00:12:48;11.98;;;8.75;;
38132;SDS011;23948;43.252;26.572;2023-05-19T00:15:13;13.00;;;8.20;;
38132;SDS011;23948;43.252;26.572;2023-05-19T00:17:39;14.07;;;8.52;;
38132;SDS011;23948;43.252;26.572;2023-05-19T00:20:06;18.20;;;9.55;;
38132;SDS011;23948;43.252;26.572;2023-05-19T00:22:32;17.77;;;9.52;;
38132;SDS011;23948;43.252;26.572;2023-05-19T00:24:57;15.40;;;9.40;;
38132;SDS011;23948;43.252;26.572;2023-05-19T00:27:22;12.05;;;9.15;;
38132;SDS011;23948;43.252;26.572;2023-05-19T00:29:48;9.77;;;8.77;;
38132;SDS011;23948;43.252;26.572;2023-05-19T00:32:13;15.23;;;9.75;;
38132;SDS011;23948;43.252;26.572;2023-05-19T00:34:39;13.48;;;10.05;;
38132;SDS011;23948;43.252;26.572;2023-05-19T00:37:04;13.63;;;9.70;;
38132;SDS011;23948;43.252;26.572;2023-05-19T00:39:30;15.30;;;9.52;;
38132;SDS011;23948;43.252;26.572;2023-05-19T00:41:55;12.38;;;9.30;;
38132;SDS011;23948;43.252;26.572;2023-05-19T00:44:20;13.45;;;9.85;;
38132;SDS011;23948;43.252;26.572;2023-05-19T00:46:46;17.38;;;9.63;;
38132;SDS011;23948;43.252;26.572;2023-05-19T00:49:11;11.68;;;8.65;;
38132;SDS011;23948;43.252;26.572;2023-05-19T00:51:36;16.13;;;10.25;;
38132;SDS011;23948;43.252;26.572;2023-05-19T00:54:02;13.20;;;9.18;;
38132;SDS011;23948;43.252;26.572;2023-05-19T00:56:27;15.85;;;9.98;;
38132;SDS011;23948;43.252;26.572;2023-05-19T00:58:52;12.82;;;9.27;;
38132;SDS011;23948;43.252;26.572;2023-05-19T01:01:18;13.65;;;10.93;;
38132;SDS011;23948;43.252;26.572;2023-05-19T01:03:45;14.20;;;10.18;;
38132;SDS011;23948;43.252;26.572;2023-05-19T01:06:11;13.38;;;10.48;;
38132;SDS011;23948;43.252;26.572;2023-05-19T01:08:36;14.90;;;10.40;;
38132;SDS011;23948;43.252;26.572;2023-05-19T01:11:02;16.67;;;10.80;;
38132;SDS011;23948;43.252;26.572;2023-05-19T01:13:28;15.55;;;10.57;;
38132;SDS011;23948;43.252;26.572;2023-05-19T01:18:33;13.55;;;10.63;;
38132;SDS011;23948;43.252;26.572;2023-05-19T01:21:15;16.75;;;10.68;;
38132;SDS011;23948;43.252;26.572;2023-05-19T01:29:28;17.30;;;11.77;;
38132;SDS011;23948;43.252;26.572;2023-05-19T01:31:57;13.20;;;10.55;;
38132;SDS011;23948;43.252;26.572;2023-05-19T01:34:23;14.63;;;11.48;;
38132;SDS011;23948;43.252;26.572;2023-05-19T01:36:50;16.30;;;11.65;;
38132;SDS011;23948;43.252;26.572;2023-05-19T01:39:17;15.05;;;11.00;;
38132;SDS011;23948;43.252;26.572;2023-05-19T01:41:43;12.32;;;10.48;;
38132;SDS011;23948;43.252;26.572;2023-05-19T01:44:09;13.15;;;10.77;;
38132;SDS011;23948;43.252;26.572;2023-05-19T01:46:36;15.25;;;11.65;;
38132;SDS011;23948;43.252;26.572;2023-05-19T01:49:01;14.38;;;11.23;;
38132;SDS011;23948;43.252;26.572;2023-05-19T01:51:26;15.65;;;11.35;;
38132;SDS011;23948;43.252;26.572;2023-05-19T01:53:52;17.05;;;11.93;;
38132;SDS011;23948;43.252;26.572;2023-05-19T01:56:19;13.25;;;11.80;;
38132;SDS011;23948;43.252;26.572;2023-05-19T01:58:47;16.85;;;12.13;;
38132;SDS011;23948;43.252;26.572;2023-05-19T02:09:33;15.18;;;12.48;;
38132;SDS011;23948;43.252;26.572;2023-05-19T02:12:10;19.23;;;13.70;;
38132;SDS011;23948;43.252;26.572;2023-05-19T02:14:40;19.08;;;13.45;;
38132;SDS011;23948;43.252;26.572;2023-05-19T02:17:05;21.08;;;13.70;;
38132;SDS011;23948;43.252;26.572;2023-05-19T02:19:33;17.75;;;13.65;;
38132;SDS011;23948;43.252;26.572;2023-05-19T02:21:58;23.00;;;14.27;;
38132;SDS011;23948;43.252;26.572;2023-05-19T02:24:23;16.73;;;14.48;;
38132;SDS011;23948;43.252;26.572;2023-05-19T02:26:49;17.50;;;13.50;;
38132;SDS011;23948;43.252;26.572;2023-05-19T02:29:15;16.27;;;14.35;;
38132;SDS011;23948;43.252;26.572;2023-05-19T02:31:41;22.42;;;13.98;;
38132;SDS011;23948;43.252;26.572;2023-05-19T02:34:06;15.55;;;13.38;;
38132;SDS011;23948;43.252;26.572;2023-05-19T02:36:33;17.27;;;14.23;;
38132;SDS011;23948;43.252;26.572;2023-05-19T02:38:59;17.80;;;14.18;;
38132;SDS011;23948;43.252;26.572;2023-05-19T02:41:26;25.48;;;14.90;;
38132;SDS011;23948;43.252;26.572;2023-05-19T02:43:51;21.48;;;14.25;;
38132;SDS011;23948;43.252;26.572;2023-05-19T02:46:16;18.95;;;14.18;;
38132;SDS011;23948;43.252;26.572;2023-05-19T02:48:41;17.25;;;14.02;;
38132;SDS011;23948;43.252;26.572;2023-05-19T02:51:07;18.55;;;14.27;;
38132;SDS011;23948;43.252;26.572;2023-05-19T02:53:32;17.60;;;13.45;;
38132;SDS011;23948;43.252;26.572;2023-05-19T02:55:57;21.50;;;14.52;;
38132;SDS011;23948;43.252;26.572;2023-05-19T02:58:22;19.45;;;14.20;;
38132;SDS011;23948;43.252;26.572;2023-05-19T03:00:48;16.67;;;13.70;;
38132;SDS011;23948;43.252;26.572;2023-05-19T03:03:13;20.25;;;15.02;;
38132;SDS011;23948;43.252;26.572;2023-05-19T03:05:38;22.65;;;15.35;;
38132;SDS011;23948;43.252;26.572;2023-05-19T03:08:04;18.38;;;14.25;;
38132;SDS011;23948;43.252;26.572;2023-05-19T03:10:30;16.75;;;14.05;;
38132;SDS011;23948;43.252;26.572;2023-05-19T03:12:55;24.55;;;13.90;;
38132;SDS011;23948;43.252;26.572;2023-05-19T03:15:20;15.27;;;13.13;;
38132;SDS011;23948;43.252;26.572;2023-05-19T03:17:47;18.95;;;13.20;;
38132;SDS011;23948;43.252;26.572;2023-05-19T03:20:12;16.13;;;13.50;;
38132;SDS011;23948;43.252;26.572;2023-05-19T03:22:39;16.80;;;13.60;;
38132;SDS011;23948;43.252;26.572;2023-05-19T03:25:05;16.40;;;13.73;;
38132;SDS011;23948;43.252;26.572;2023-05-19T03:27:30;19.20;;;13.73;;
38132;SDS011;23948;43.252;26.572;2023-05-19T03:29:56;21.48;;;14.70;;
38132;SDS011;23948;43.252;26.572;2023-05-19T03:32:21;19.25;;;14.15;;
38132;SDS011;23948;43.252;26.572;2023-05-19T03:34:46;23.50;;;13.95;;
38132;SDS011;23948;43.252;26.572;2023-05-19T03:37:11;21.15;;;14.05;;
38132;SDS011;23948;43.252;26.572;2023-05-19T03:39:37;18.55;;;14.27;;
38132;SDS011;23948;43.252;26.572;2023-05-19T03:42:02;19.33;;;13.57;;
38132;SDS011;23948;43.252;26.572;2023-05-19T03:44:27;19.10;;;14.10;;
38132;SDS011;23948;43.252;26.572;2023-05-19T03:46:53;22.20;;;14.30;;
38132;SDS011;23948;43.252;26.572;2023-05-19T03:49:18;17.80;;;13.90;;
38132;SDS011;23948;43.252;26.572;2023-05-19T03:51:43;17.52;;;13.93;;
38132;SDS011;23948;43.252;26.572;2023-05-19T03:54:08;19.67;;;13.75;;
38132;SDS011;23948;43.252;26.572;2023-05-19T03:56:37;22.48;;;14.27;;
38132;SDS011;23948;43.252;26.572;2023-05-19T03:59:02;21.40;;;13.93;;
38132;SDS011;23948;43.252;26.572;2023-05-19T04:01:30;21.75;;;14.18;;
38132;SDS011;23948;43.252;26.572;2023-05-19T04:03:55;18.92;;;15.02;;
38132;SDS011;23948;43.252;26.572;2023-05-19T04:06:20;21.75;;;13.60;;
38132;SDS011;23948;43.252;26.572;2023-05-19T04:08:46;18.08;;;13.38;;
38132;SDS011;23948;43.252;26.572;2023-05-19T04:11:11;21.23;;;14.82;;
38132;SDS011;23948;43.252;26.572;2023-05-19T04:13:36;17.65;;;13.90;;
38132;SDS011;23948;43.252;26.572;2023-05-19T04:16:02;19.70;;;13.48;;
38132;SDS011;23948;43.252;26.572;2023-05-19T04:18:27;18.20;;;15.02;;
38132;SDS011;23948;43.252;26.572;2023-05-19T04:20:52;16.05;;;13.63;;
38132;SDS011;23948;43.252;26.572;2023-05-19T04:23:17;23.17;;;13.82;;
38132;SDS011;23948;43.252;26.572;2023-05-19T04:25:43;22.08;;;14.05;;
38132;SDS011;23948;43.252;26.572;2023-05-19T04:28:08;22.65;;;14.10;;
38132;SDS011;23948;43.252;26.572;2023-05-19T04:30:33;18.08;;;13.65;;
38132;SDS011;23948;43.252;26.572;2023-05-19T04:33:00;22.95;;;15.50;;
38132;SDS011;23948;43.252;26.572;2023-05-19T04:35:27;16.77;;;13.93;;
38132;SDS011;23948;43.252;26.572;2023-05-19T04:37:53;19.63;;;13.70;;
38132;SDS011;23948;43.252;26.572;2023-05-19T04:40:18;20.10;;;14.35;;
38132;SDS011;23948;43.252;26.572;2023-05-19T04:42:45;22.50;;;15.70;;
38132;SDS011;23948;43.252;26.572;2023-05-19T04:45:10;24.08;;;14.68;;
38132;SDS011;23948;43.252;26.572;2023-05-19T04:47:39;21.35;;;15.38;;
38132;SDS011;23948;43.252;26.572;2023-05-19T04:50:05;20.98;;;14.70;;
38132;SDS011;23948;43.252;26.572;2023-05-19T04:52:31;21.27;;;15.18;;
38132;SDS011;23948;43.252;26.572;2023-05-19T04:54:56;20.23;;;14.50;;
38132;SDS011;23948;43.252;26.572;2023-05-19T04:57:22;16.92;;;12.88;;
38132;SDS011;23948;43.252;26.572;2023-05-19T04:59:47;20.63;;;14.00;;
38132;SDS011;23948;43.252;26.572;2023-05-19T05:02:13;22.60;;;14.40;;
38132;SDS011;23948;43.252;26.572;2023-05-19T05:04:38;23.02;;;14.52;;
38132;SDS011;23948;43.252;26.572;2023-05-19T05:07:06;22.17;;;13.93;;
38132;SDS011;23948;43.252;26.572;2023-05-19T05:09:32;20.00;;;14.50;;
38132;SDS011;23948;43.252;26.572;2023-05-19T05:11:57;21.48;;;13.23;;
38132;SDS011;23948;43.252;26.572;2023-05-19T05:14:24;21.33;;;14.10;;
38132;SDS011;23948;43.252;26.572;2023-05-19T05:16:49;17.58;;;13.18;;
38132;SDS011;23948;43.252;26.572;2023-05-19T05:19:14;24.27;;;15.50;;
38132;SDS011;23948;43.252;26.572;2023-05-19T05:21:40;23.52;;;16.00;;
38132;SDS011;23948;43.252;26.572;2023-05-19T05:24:06;18.77;;;14.15;;
38132;SDS011;23948;43.252;26.572;2023-05-19T05:26:32;19.08;;;14.02;;
38132;SDS011;23948;43.252;26.572;2023-05-19T05:28:57;21.60;;;14.68;;
38132;SDS011;23948;43.252;26.572;2023-05-19T05:31:22;17.10;;;13.95;;
38132;SDS011;23948;43.252;26.572;2023-05-19T05:33:48;22.33;;;15.70;;
38132;SDS011;23948;43.252;26.572;2023-05-19T05:36:13;20.40;;;13.90;;
38132;SDS011;23948;43.252;26.572;2023-05-19T05:38:38;21.27;;;13.75;;
38132;SDS011;23948;43.252;26.572;2023-05-19T05:41:03;24.90;;;14.93;;
38132;SDS011;23948;43.252;26.572;2023-05-19T05:43:29;25.92;;;14.45;;
38132;SDS011;23948;43.252;26.572;2023-05-19T05:45:55;20.42;;;14.57;;
38132;SDS011;23948;43.252;26.572;2023-05-19T05:48:20;24.73;;;15.23;;
38132;SDS011;23948;43.252;26.572;2023-05-19T05:50:46;22.50;;;14.98;;
38132;SDS011;23948;43.252;26.572;2023-05-19T05:53:18;26.80;;;15.18;;
38132;SDS011;23948;43.252;26.572;2023-05-19T05:55:44;24.90;;;15.35;;
38132;SDS011;23948;43.252;26.572;2023-05-19T05:58:10;18.45;;;14.20;;
38132;SDS011;23948;43.252;26.572;2023-05-19T06:00:35;22.55;;;15.73;;
38132;SDS011;23948;43.252;26.572;2023-05-19T06:03:01;22.73;;;15.32;;
38132;SDS011;23948;43.252;26.572;2023-05-19T06:05:28;24.98;;;16.15;;
38132;SDS011;23948;43.252;26.572;2023-05-19T06:07:53;22.08;;;15.75;;
38132;SDS011;23948;43.252;26.572;2023-05-19T06:10:18;26.17;;;15.32;;
38132;SDS011;23948;43.252;26.572;2023-05-19T06:12:43;34.75;;;17.05;;
38132;SDS011;23948;43.252;26.572;2023-05-19T06:15:09;34.33;;;15.95;;
38132;SDS011;23948;43.252;26.572;2023-05-19T06:17:35;25.00;;;16.23;;
38132;SDS011;23948;43.252;26.572;2023-05-19T06:20:01;20.95;;;14.88;;
38132;SDS011;23948;43.252;26.572;2023-05-19T06:22:26;22.35;;;14.15;;
38132;SDS011;23948;43.252;26.572;2023-05-19T06:24:52;20.08;;;15.45;;
38132;SDS011;23948;43.252;26.572;2023-05-19T06:27:17;22.88;;;14.80;;
38132;SDS011;23948;43.252;26.572;2023-05-19T06:29:44;23.25;;;14.80;;
38132;SDS011;23948;43.252;26.572;2023-05-19T06:32:09;17.63;;;14.30;;
38132;SDS011;23948;43.252;26.572;2023-05-19T06:34:35;24.35;;;14.68;;
38132;SDS011;23948;43.252;26.572;2023-05-19T06:37:02;21.90;;;14.25;;
38132;SDS011;23948;43.252;26.572;2023-05-19T06:39:27;19.40;;;15.13;;
38132;SDS011;23948;43.252;26.572;2023-05-19T06:41:52;22.10;;;13.68;;
38132;SDS011;23948;43.252;26.572;2023-05-19T06:44:18;27.35;;;13.40;;
38132;SDS011;23948;43.252;26.572;2023-05-19T06:46:43;19.92;;;14.25;;
38132;SDS011;23948;43.252;26.572;2023-05-19T06:49:09;18.70;;;13.57;;
38132;SDS011;23948;43.252;26.572;2023-05-19T06:51:34;23.27;;;15.43;;
38132;SDS011;23948;43.252;26.572;2023-05-19T06:53:59;23.23;;;15.30;;
38132;SDS011;23948;43.252;26.572;2023-05-19T06:56:25;18.45;;;13.88;;
38132;SDS011;23948;43.252;26.572;2023-05-19T06:58:50;24.60;;;14.18;;
38132;SDS011;23948;43.252;26.572;2023-05-19T07:01:15;22.88;;;15.48;;
38132;SDS011;23948;43.252;26.572;2023-05-19T07:03:41;19.27;;;14.45;;
38132;SDS011;23948;43.252;26.572;2023-05-19T07:06:07;20.75;;;15.05;;
38132;SDS011;23948;43.252;26.572;2023-05-19T07:08:32;23.15;;;14.38;;
38132;SDS011;23948;43.252;26.572;2023-05-19T07:10:58;21.60;;;14.18;;
38132;SDS011;23948;43.252;26.572;2023-05-19T07:13:24;19.00;;;12.85;;
38132;SDS011;23948;43.252;26.572;2023-05-19T07:15:50;18.83;;;13.40;;
38132;SDS011;23948;43.252;26.572;2023-05-19T07:18:19;16.50;;;12.05;;
38132;SDS011;23948;43.252;26.572;2023-05-19T07:20:44;17.77;;;13.32;;
38132;SDS011;23948;43.252;26.572;2023-05-19T07:23:10;19.20;;;13.27;;
38132;SDS011;23948;43.252;26.572;2023-05-19T07:25:35;20.17;;;13.20;;
38132;SDS011;23948;43.252;26.572;2023-05-19T07:28:00;14.55;;;10.93;;
38132;SDS011;23948;43.252;26.572;2023-05-19T07:30:29;13.55;;;11.07;;
38132;SDS011;23948;43.252;26.572;2023-05-19T07:32:55;20.90;;;12.20;;
38132;SDS011;23948;43.252;26.572;2023-05-19T07:35:20;17.17;;;11.82;;
38132;SDS011;23948;43.252;26.572;2023-05-19T07:37:50;14.45;;;10.32;;
38132;SDS011;23948;43.252;26.572;2023-05-19T07:40:15;17.50;;;11.95;;
38132;SDS011;23948;43.252;26.572;2023-05-19T07:42:41;19.70;;;12.75;;
38132;SDS011;23948;43.252;26.572;2023-05-19T07:45:06;16.90;;;10.88;;
38132;SDS011;23948;43.252;26.572;2023-05-19T07:47:32;15.63;;;10.73;;
38132;SDS011;23948;43.252;26.572;2023-05-19T07:49:57;15.15;;;11.07;;
38132;SDS011;23948;43.252;26.572;2023-05-19T07:52:22;14.25;;;10.57;;
38132;SDS011;23948;43.252;26.572;2023-05-19T07:54:48;23.67;;;11.53;;
38132;SDS011;23948;43.252;26.572;2023-05-19T07:57:13;18.07;;;11.50;;
38132;SDS011;23948;43.252;26.572;2023-05-19T07:59:38;19.17;;;11.87;;
38132;SDS011;23948;43.252;26.572;2023-05-19T08:02:04;18.42;;;11.93;;
38132;SDS011;23948;43.252;26.572;2023-05-19T08:04:29;14.40;;;11.63;;
38132;SDS011;23948;43.252;26.572;2023-05-19T08:06:55;24.00;;;12.70;;
38132;SDS011;23948;43.252;26.572;2023-05-19T08:09:20;17.27;;;11.85;;
38132;SDS011;23948;43.252;26.572;2023-05-19T08:11:45;14.85;;;11.73;;
38132;SDS011;23948;43.252;26.572;2023-05-19T08:14:11;14.48;;;9.95;;
38132;SDS011;23948;43.252;26.572;2023-05-19T08:16:36;14.95;;;11.35;;
38132;SDS011;23948;43.252;26.572;2023-05-19T08:19:01;14.07;;;10.60;;
38132;SDS011;23948;43.252;26.572;2023-05-19T08:21:29;20.90;;;11.13;;
38132;SDS011;23948;43.252;26.572;2023-05-19T08:23:58;19.83;;;11.30;;
38132;SDS011;23948;43.252;26.572;2023-05-19T08:26:23;12.98;;;10.68;;
38132;SDS011;23948;43.252;26.572;2023-05-19T08:28:49;16.35;;;11.27;;
38132;SDS011;23948;43.252;26.572;2023-05-19T08:31:14;13.48;;;10.85;;
38132;SDS011;23948;43.252;26.572;2023-05-19T08:33:42;19.70;;;12.40;;
38132;SDS011;23948;43.252;26.572;2023-05-19T08:36:07;23.05;;;12.27;;
38132;SDS011;23948;43.252;26.572;2023-05-19T08:38:32;19.13;;;10.75;;
38132;SDS011;23948;43.252;26.572;2023-05-19T08:40:58;13.98;;;11.23;;
38132;SDS011;23948;43.252;26.572;2023-05-19T08:43:23;21.02;;;12.05;;
38132;SDS011;23948;43.252;26.572;2023-05-19T08:45:48;16.48;;;12.55;;
38132;SDS011;23948;43.252;26.572;2023-05-19T08:48:15;15.35;;;12.32;;
38132;SDS011;23948;43.252;26.572;2023-05-19T08:50:41;20.10;;;12.38;;
38132;SDS011;23948;43.252;26.572;2023-05-19T08:53:18;15.93;;;11.90;;
38132;SDS011;23948;43.252;26.572;2023-05-19T08:56:09;18.92;;;11.60;;
38132;SDS011;23948;43.252;26.572;2023-05-19T08:58:34;18.00;;;12.25;;
38132;SDS011;23948;43.252;26.572;2023-05-19T09:01:00;16.17;;;11.82;;
38132;SDS011;23948;43.252;26.572;2023-05-19T09:03:27;16.20;;;11.40;;
38132;SDS011;23948;43.252;26.572;2023-05-19T09:05:52;17.08;;;11.88;;
38132;SDS011;23948;43.252;26.572;2023-05-19T09:08:18;15.88;;;11.32;;
38132;SDS011;23948;43.252;26.572;2023-05-19T09:10:43;21.25;;;12.60;;
38132;SDS011;23948;43.252;26.572;2023-05-19T09:13:08;18.92;;;11.25;;
38132;SDS011;23948;43.252;26.572;2023-05-19T09:15:34;13.43;;;10.63;;
38132;SDS011;23948;43.252;26.572;2023-05-19T09:20:35;15.00;;;10.85;;
38132;SDS011;23948;43.252;26.572;2023-05-19T09:23:00;16.23;;;10.73;;
38132;SDS011;23948;43.252;26.572;2023-05-19T09:25:25;20.35;;;10.15;;
38132;SDS011;23948;43.252;26.572;2023-05-19T09:27:52;16.88;;;9.90;;
38132;SDS011;23948;43.252;26.572;2023-05-19T09:30:18;17.85;;;10.35;;
38132;SDS011;23948;43.252;26.572;2023-05-19T09:32:44;18.88;;;10.15;;
38132;SDS011;23948;43.252;26.572;2023-05-19T09:35:10;20.98;;;13.48;;
38132;SDS011;23948;43.252;26.572;2023-05-19T09:37:38;20.38;;;13.23;;
38132;SDS011;23948;43.252;26.572;2023-05-19T09:40:03;20.25;;;12.40;;
38132;SDS011;23948;43.252;26.572;2023-05-19T09:42:29;18.92;;;11.07;;
38132;SDS011;23948;43.252;26.572;2023-05-19T09:45:03;18.92;;;10.68;;
38132;SDS011;23948;43.252;26.572;2023-05-19T09:47:32;15.40;;;10.13;;
38132;SDS011;23948;43.252;26.572;2023-05-19T09:49:57;18.33;;;10.10;;
38132;SDS011;23948;43.252;26.572;2023-05-19T09:52:23;20.30;;;10.50;;
38132;SDS011;23948;43.252;26.572;2023-05-19T09:54:48;19.30;;;10.32;;
38132;SDS011;23948;43.252;26.572;2023-05-19T09:57:15;16.02;;;11.35;;
38132;SDS011;23948;43.252;26.572;2023-05-19T09:59:40;22.75;;;12.02;;
38132;SDS011;23948;43.252;26.572;2023-05-19T10:02:08;24.40;;;11.73;;
38132;SDS011;23948;43.252;26.572;2023-05-19T10:04:35;16.00;;;10.88;;
38132;SDS011;23948;43.252;26.572;2023-05-19T10:07:00;19.98;;;10.35;;
38132;SDS011;23948;43.252;26.572;2023-05-19T10:09:29;15.05;;;9.40;;
38132;SDS011;23948;43.252;26.572;2023-05-19T10:11:55;16.63;;;10.32;;
38132;SDS011;23948;43.252;26.572;2023-05-19T10:14:21;18.00;;;10.60;;
38132;SDS011;23948;43.252;26.572;2023-05-19T10:16:49;14.23;;;10.48;;
38132;SDS011;23948;43.252;26.572;2023-05-19T10:19:18;19.25;;;9.75;;
38132;SDS011;23948;43.252;26.572;2023-05-19T10:21:44;17.65;;;10.02;;
38132;SDS011;23948;43.252;26.572;2023-05-19T10:24:10;14.70;;;10.40;;
38132;SDS011;23948;43.252;26.572;2023-05-19T10:26:35;15.80;;;10.85;;
38132;SDS011;23948;43.252;26.572;2023-05-19T10:29:01;12.30;;;9.38;;
38132;SDS011;23948;43.252;26.572;2023-05-19T10:31:27;15.50;;;9.88;;
38132;SDS011;23948;43.252;26.572;2023-05-19T10:34:00;16.70;;;9.35;;
38132;SDS011;23948;43.252;26.572;2023-05-19T10:38:59;16.25;;;9.40;;
38132;SDS011;23948;43.252;26.572;2023-05-19T10:41:40;15.02;;;9.95;;
38132;SDS011;23948;43.252;26.572;2023-05-19T10:46:33;19.10;;;9.90;;
38132;SDS011;23948;43.252;26.572;2023-05-19T10:48:58;15.00;;;10.05;;
38132;SDS011;23948;43.252;26.572;2023-05-19T10:51:27;13.88;;;9.98;;
38132;SDS011;23948;43.252;26.572;2023-05-19T10:53:52;15.60;;;9.77;;
38132;SDS011;23948;43.252;26.572;2023-05-19T10:56:28;19.05;;;10.70;;
38132;SDS011;23948;43.252;26.572;2023-05-19T10:59:00;17.17;;;9.80;;
38132;SDS011;23948;43.252;26.572;2023-05-19T11:01:30;21.00;;;10.60;;
38132;SDS011;23948;43.252;26.572;2023-05-19T11:03:55;19.40;;;10.55;;
38132;SDS011;23948;43.252;26.572;2023-05-19T11:06:25;19.08;;;10.43;;
38132;SDS011;23948;43.252;26.572;2023-05-19T11:08:52;17.30;;;10.98;;
38132;SDS011;23948;43.252;26.572;2023-05-19T11:11:17;16.30;;;11.02;;
38132;SDS011;23948;43.252;26.572;2023-05-19T11:13:46;19.70;;;10.90;;
38132;SDS011;23948;43.252;26.572;2023-05-19T11:16:13;36.67;;;14.30;;
38132;SDS011;23948;43.252;26.572;2023-05-19T11:18:38;36.67;;;15.43;;
38132;SDS011;23948;43.252;26.572;2023-05-19T11:21:04;29.58;;;15.57;;
38132;SDS011;23948;43.252;26.572;2023-05-19T11:23:32;25.30;;;14.55;;
38132;SDS011;23948;43.252;26.572;2023-05-19T11:25:59;28.73;;;15.95;;
38132;SDS011;23948;43.252;26.572;2023-05-19T11:28:26;21.52;;;14.98;;
38132;SDS011;23948;43.252;26.572;2023-05-19T11:30:53;25.85;;;16.90;;
38132;SDS011;23948;43.252;26.572;2023-05-19T11:33:19;28.95;;;19.08;;
38132;SDS011;23948;43.252;26.572;2023-05-19T11:35:49;29.40;;;18.15;;
38132;SDS011;23948;43.252;26.572;2023-05-19T11:38:17;27.13;;;15.52;;
38132;SDS011;23948;43.252;26.572;2023-05-19T11:40:43;30.67;;;15.05;;
38132;SDS011;23948;43.252;26.572;2023-05-19T11:43:08;25.70;;;14.25;;
38132;SDS011;23948;43.252;26.572;2023-05-19T11:45:34;25.15;;;16.02;;
38132;SDS011;23948;43.252;26.572;2023-05-19T11:47:59;17.92;;;14.15;;
38132;SDS011;23948;43.252;26.572;2023-05-19T11:50:25;19.23;;;14.48;;
38132;SDS011;23948;43.252;26.572;2023-05-19T11:52:50;21.40;;;12.80;;
38132;SDS011;23948;43.252;26.572;2023-05-19T11:55:20;15.50;;;11.80;;
38132;SDS011;23948;43.252;26.572;2023-05-19T12:00:24;20.75;;;12.68;;
38132;SDS011;23948;43.252;26.572;2023-05-19T12:02:49;15.65;;;10.68;;
38132;SDS011;23948;43.252;26.572;2023-05-19T12:05:21;12.82;;;10.20;;
38132;SDS011;23948;43.252;26.572;2023-05-19T12:07:46;13.38;;;9.80;;
38132;SDS011;23948;43.252;26.572;2023-05-19T12:10:15;11.93;;;8.02;;
38132;SDS011;23948;43.252;26.572;2023-05-19T12:12:40;11.07;;;6.40;;
38132;SDS011;23948;43.252;26.572;2023-05-19T12:15:06;11.90;;;7.15;;
38132;SDS011;23948;43.252;26.572;2023-05-19T12:17:32;14.07;;;7.25;;
38132;SDS011;23948;43.252;26.572;2023-05-19T12:19:57;10.07;;;7.63;;
38132;SDS011;23948;43.252;26.572;2023-05-19T12:22:23;12.30;;;8.40;;
38132;SDS011;23948;43.252;26.572;2023-05-19T12:24:48;13.48;;;9.00;;
38132;SDS011;23948;43.252;26.572;2023-05-19T12:27:18;12.57;;;9.40;;
38132;SDS011;23948;43.252;26.572;2023-05-19T12:29:48;14.52;;;9.50;;
38132;SDS011;23948;43.252;26.572;2023-05-19T12:32:13;10.98;;;8.77;;
38132;SDS011;23948;43.252;26.572;2023-05-19T12:34:39;11.60;;;8.77;;
38132;SDS011;23948;43.252;26.572;2023-05-19T12:37:05;12.60;;;8.77;;
38132;SDS011;23948;43.252;26.572;2023-05-19T12:39:30;11.57;;;7.40;;
38132;SDS011;23948;43.252;26.572;2023-05-19T12:42:03;11.23;;;6.55;;
38132;SDS011;23948;43.252;26.572;2023-05-19T12:44:28;11.88;;;7.45;;
38132;SDS011;23948;43.252;26.572;2023-05-19T12:46:55;13.35;;;7.40;;
38132;SDS011;23948;43.252;26.572;2023-05-19T12:49:21;15.40;;;7.78;;
38132;SDS011;23948;43.252;26.572;2023-05-19T12:51:52;10.57;;;7.10;;
38132;SDS011;23948;43.252;26.572;2023-05-19T12:54:18;9.27;;;6.40;;
38132;SDS011;23948;43.252;26.572;2023-05-19T12:56:50;10.65;;;7.15;;
38132;SDS011;23948;43.252;26.572;2023-05-19T12:59:20;16.02;;;7.28;;
38132;SDS011;23948;43.252;26.572;2023-05-19T13:01:45;10.25;;;7.43;;
38132;SDS011;23948;43.252;26.572;2023-05-19T13:04:18;10.10;;;7.45;;
38132;SDS011;23948;43.252;26.572;2023-05-19T13:06:44;11.93;;;7.53;;
38132;SDS011;23948;43.252;26.572;2023-05-19T13:09:11;10.80;;;7.15;;
38132;SDS011;23948;43.252;26.572;2023-05-19T13:11:36;12.63;;;7.63;;
38132;SDS011;23948;43.252;26.572;2023-05-19T13:14:01;11.38;;;7.63;;
38132;SDS011;23948;43.252;26.572;2023-05-19T13:16:27;12.95;;;7.40;;
38132;SDS011;23948;43.252;26.572;2023-05-19T13:18:53;11.57;;;6.50;;
38132;SDS011;23948;43.252;26.572;2023-05-19T13:21:18;14.10;;;7.32;;
38132;SDS011;23948;43.252;26.572;2023-05-19T13:23:43;9.00;;;6.65;;
38132;SDS011;23948;43.252;26.572;2023-05-19T13:26:09;10.65;;;5.80;;
38132;SDS011;23948;43.252;26.572;2023-05-19T13:28:39;7.28;;;5.43;;
38132;SDS011;23948;43.252;26.572;2023-05-19T13:31:04;8.90;;;6.15;;
38132;SDS011;23948;43.252;26.572;2023-05-19T13:33:30;11.13;;;5.80;;
38132;SDS011;23948;43.252;26.572;2023-05-19T13:35:56;9.30;;;5.82;;
38132;SDS011;23948;43.252;26.572;2023-05-19T13:38:21;8.80;;;6.30;;
38132;SDS011;23948;43.252;26.572;2023-05-19T13:40:46;8.07;;;5.47;;
38132;SDS011;23948;43.252;26.572;2023-05-19T13:43:12;10.00;;;5.90;;
38132;SDS011;23948;43.252;26.572;2023-05-19T13:45:37;10.82;;;6.32;;
38132;SDS011;23948;43.252;26.572;2023-05-19T13:48:03;9.90;;;6.82;;
38132;SDS011;23948;43.252;26.572;2023-05-19T13:50:28;10.75;;;6.68;;
38132;SDS011;23948;43.252;26.572;2023-05-19T13:52:53;9.60;;;6.63;;
38132;SDS011;23948;43.252;26.572;2023-05-19T13:55:19;10.57;;;6.90;;
38132;SDS011;23948;43.252;26.572;2023-05-19T13:57:44;10.30;;;7.00;;
38132;SDS011;23948;43.252;26.572;2023-05-19T14:00:10;8.30;;;6.13;;
38132;SDS011;23948;43.252;26.572;2023-05-19T14:02:35;12.75;;;6.20;;
38132;SDS011;23948;43.252;26.572;2023-05-19T14:05:05;11.02;;;6.72;;
38132;SDS011;23948;43.252;26.572;2023-05-19T14:07:30;10.90;;;7.10;;
38132;SDS011;23948;43.252;26.572;2023-05-19T14:09:58;10.20;;;7.50;;
38132;SDS011;23948;43.252;26.572;2023-05-19T14:12:24;9.60;;;6.68;;
38132;SDS011;23948;43.252;26.572;2023-05-19T14:14:50;13.75;;;6.82;;
38132;SDS011;23948;43.252;26.572;2023-05-19T14:17:15;10.35;;;7.07;;
38132;SDS011;23948;43.252;26.572;2023-05-19T14:19:42;9.25;;;6.43;;
38132;SDS011;23948;43.252;26.572;2023-05-19T14:22:07;11.90;;;7.22;;
38132;SDS011;23948;43.252;26.572;2023-05-19T14:24:33;10.73;;;6.85;;
38132;SDS011;23948;43.252;26.572;2023-05-19T14:26:58;9.65;;;6.10;;
38132;SDS011;23948;43.252;26.572;2023-05-19T14:29:23;10.52;;;6.40;;
38132;SDS011;23948;43.252;26.572;2023-05-19T14:31:48;10.25;;;6.50;;
38132;SDS011;23948;43.252;26.572;2023-05-19T14:34:14;15.50;;;6.90;;